Speed, Missouri
Current Conditions -  °F | °C
As of 12:15 AM on Thursday 23 Oct 2014 (Local Time) from KVER Reporting Station
Haze Haze  
Wind Chill: 50°   Ceiling: Unl
Heat Index: 50°   Visibility: 2.5mi
Dew Point: 42°   Wind: 8mph
Humidity: 73%   Direction: 130°SE
Pressure: 30.16"   Gusts: NA
Location:  38.8814°N, 92.7602°W
Report Text: KVER 230515Z AUTO 13007KT 2 1/2SM HZ CLR 10/06 A3016 RMK AO2 T01020055
Loading
Personal Weather Stations






























Interactive Weather Map
Tropical Storm Tracking
New forecast layout! Learn more

10-Day Weather Forecast

Advertisements
Track Severe Weather on mobile